This is the latest recevied weather packets stored in our database for station/object HB9TJR-3. If no packets are shown the sender has not sent any weather packets the latest 10 day(s).
| Time | Temp. | Humidity | Pressure | Rain* | Wind** | Luminosity | Snow |
|---|---|---|---|---|---|---|---|
| 1777631974 | 14.44° C | 75% | 873.5 hPa | 0 mm | - | - | - |
| 1777630055 | 13.89° C | 74% | 873.4 hPa | 0 mm | - | - | - |
| 1777628134 | 13.89° C | 71% | 873.3 hPa | 0 mm | - | - | - |
| 1777627178 | 13.89° C | 67% | 873.1 hPa | 0 mm | - | - | - |
| 1777626219 | 13.33° C | 68% | 873 hPa | 0 mm | - | - | - |
| 1777625254 | 13.33° C | 65% | 873 hPa | 0 mm | - | - | - |
| 1777624295 | 13.33° C | 66% | 872.9 hPa | 0 mm | - | - | - |
| 1777623334 | 12.78° C | 67% | 872.9 hPa | 0 mm | - | - | - |
| 1777621416 | 12.78° C | 64% | 872.7 hPa | 0 mm | - | - | - |
| 1777620455 | 12.78° C | 64% | 872.6 hPa | 0 mm | - | - | - |
| 1777619494 | 12.78° C | 64% | 872.5 hPa | 0 mm | - | - | - |
| 1777618534 | 12.22° C | 64% | 872.4 hPa | 0 mm | - | - | - |
| 1777617576 | 12.22° C | 64% | 872.4 hPa | 0 mm | - | - | - |
| 1777615654 | 11.11° C | 69% | 872.2 hPa | 0 mm | - | - | - |
| 1777614695 | 11.11° C | 69% | 872.1 hPa | 0 mm | - | - | - |
| 1777613734 | 10° C | 71% | 872.2 hPa | 0 mm | - | - | - |
| 1777612774 | 9.44° C | 71% | 872 hPa | 0 mm | - | - | - |
| 1777611816 | 8.89° C | 70% | 871.9 hPa | 0 mm | - | - | - |
| 1777610855 | 8.89° C | 67% | 871.6 hPa | 0 mm | - | - | - |
| 1777609894 | 8.89° C | 66% | 871.5 hPa | 0 mm | - | - | - |
| 1777608934 | 8.89° C | 66% | 871.5 hPa | 0 mm | - | - | - |
| 1777607975 | 8.89° C | 67% | 871.4 hPa | 0 mm | - | - | - |
| 1777607016 | 8.89° C | 67% | 871.4 hPa | 0 mm | - | - | - |
| 1777606054 | 8.89° C | 67% | 871.4 hPa | 0 mm | - | - | - |
| 1777605094 | 8.89° C | 66% | 871.3 hPa | 0 mm | - | - | - |
* Rain latest hour (hover to see other rain measurements)
** Current wind speed in m/s (hover to see current wind gust speed)